sensor_id;sensor_type;location;lat;lon;timestamp;pressure;altitude;pressure_sealevel;temperature;humidity
80382;BME280;69692;55.820;37.490;2024-03-06T00:00:00;100924.81;;;-1.93;56.79
80382;BME280;69692;55.820;37.490;2024-03-06T00:02:26;100929.47;;;-2.08;56.66
80382;BME280;69692;55.820;37.490;2024-03-06T00:04:52;100933.34;;;-2.25;57.19
80382;BME280;69692;55.820;37.490;2024-03-06T00:07:19;100932.53;;;-2.25;57.01
80382;BME280;69692;55.820;37.490;2024-03-06T00:09:45;100932.19;;;-2.21;56.63
80382;BME280;69692;55.820;37.490;2024-03-06T00:12:11;100938.44;;;-2.22;56.64
80382;BME280;69692;55.820;37.490;2024-03-06T00:14:36;100932.31;;;-2.22;55.99
80382;BME280;69692;55.820;37.490;2024-03-06T00:17:03;100926.81;;;-2.19;55.56
80382;BME280;69692;55.820;37.490;2024-03-06T00:19:32;100933.63;;;-2.17;55.99
80382;BME280;69692;55.820;37.490;2024-03-06T00:21:59;100932.03;;;-2.30;55.93
80382;BME280;69692;55.820;37.490;2024-03-06T00:24:27;100930.69;;;-2.47;56.20
80382;BME280;69692;55.820;37.490;2024-03-06T00:26:52;100929.59;;;-2.45;55.79
80382;BME280;69692;55.820;37.490;2024-03-06T00:29:19;100932.41;;;-2.35;55.95
80382;BME280;69692;55.820;37.490;2024-03-06T00:31:46;100936.78;;;-2.47;55.46
80382;BME280;69692;55.820;37.490;2024-03-06T00:34:13;100934.38;;;-2.50;55.97
80382;BME280;69692;55.820;37.490;2024-03-06T00:36:40;100940.38;;;-2.48;55.87
80382;BME280;69692;55.820;37.490;2024-03-06T00:39:06;100939.53;;;-2.48;55.58
80382;BME280;69692;55.820;37.490;2024-03-06T00:41:34;100937.59;;;-2.57;55.21
80382;BME280;69692;55.820;37.490;2024-03-06T00:44:00;100942.72;;;-2.67;56.31
80382;BME280;69692;55.820;37.490;2024-03-06T00:46:26;100935.06;;;-2.59;55.33
80382;BME280;69692;55.820;37.490;2024-03-06T00:48:52;100933.75;;;-2.53;55.55
80382;BME280;69692;55.820;37.490;2024-03-06T00:51:18;100928.72;;;-2.56;55.55
80382;BME280;69692;55.820;37.490;2024-03-06T00:53:44;100934.38;;;-2.50;55.20
80382;BME280;69692;55.820;37.490;2024-03-06T00:56:10;100926.50;;;-2.38;54.63
80382;BME280;69692;55.820;37.490;2024-03-06T00:58:36;100922.34;;;-2.30;54.57
80382;BME280;69692;55.820;37.490;2024-03-06T01:01:02;100925.91;;;-2.42;54.56
80382;BME280;69692;55.820;37.490;2024-03-06T01:03:28;100922.72;;;-2.58;55.32
80382;BME280;69692;55.820;37.490;2024-03-06T01:05:54;100917.94;;;-2.64;55.29
80382;BME280;69692;55.820;37.490;2024-03-06T01:08:23;100918.53;;;-2.61;55.33
80382;BME280;69692;55.820;37.490;2024-03-06T01:10:52;100924.69;;;-2.49;54.66
80382;BME280;69692;55.820;37.490;2024-03-06T01:13:22;100927.31;;;-2.49;55.11
80382;BME280;69692;55.820;37.490;2024-03-06T01:15:48;100930.03;;;-2.62;54.58
80382;BME280;69692;55.820;37.490;2024-03-06T01:18:14;100921.53;;;-2.65;55.31
80382;BME280;69692;55.820;37.490;2024-03-06T01:20:40;100932.69;;;-2.86;55.56
80382;BME280;69692;55.820;37.490;2024-03-06T01:23:06;100930.09;;;-2.75;55.77
80382;BME280;69692;55.820;37.490;2024-03-06T01:25:32;100927.00;;;-2.68;55.05
80382;BME280;69692;55.820;37.490;2024-03-06T01:27:58;100922.47;;;-2.66;55.16
80382;BME280;69692;55.820;37.490;2024-03-06T01:30:24;100922.31;;;-2.76;54.94
80382;BME280;69692;55.820;37.490;2024-03-06T01:32:50;100929.31;;;-2.88;55.29
80382;BME280;69692;55.820;37.490;2024-03-06T01:35:16;100922.13;;;-2.86;55.51
80382;BME280;69692;55.820;37.490;2024-03-06T01:37:42;100905.94;;;2.92;86.55
80382;BME280;69692;55.820;37.490;2024-03-06T01:40:08;100898.22;;;7.73;96.51
80382;BME280;69692;55.820;37.490;2024-03-06T01:42:35;100894.69;;;5.46;42.05
80382;BME280;69692;55.820;37.490;2024-03-06T01:45:02;100906.50;;;3.31;45.23
80382;BME280;69692;55.820;37.490;2024-03-06T01:47:32;100917.16;;;1.94;46.11
80382;BME280;69692;55.820;37.490;2024-03-06T01:49:58;100923.00;;;0.72;48.61
80382;BME280;69692;55.820;37.490;2024-03-06T01:52:24;100923.13;;;-0.21;49.67
80382;BME280;69692;55.820;37.490;2024-03-06T01:54:50;100928.41;;;-1.06;53.27
80382;BME280;69692;55.820;37.490;2024-03-06T01:57:17;100938.34;;;-1.53;52.94
80382;BME280;69692;55.820;37.490;2024-03-06T01:59:44;100942.41;;;-1.83;53.55
80382;BME280;69692;55.820;37.490;2024-03-06T02:02:10;100941.81;;;-1.97;53.29
80382;BME280;69692;55.820;37.490;2024-03-06T02:04:38;100947.16;;;-2.21;53.67
80382;BME280;69692;55.820;37.490;2024-03-06T02:07:08;100944.69;;;-2.47;54.46
80382;BME280;69692;55.820;37.490;2024-03-06T02:09:34;100945.13;;;-2.64;54.52
80382;BME280;69692;55.820;37.490;2024-03-06T02:12:00;100940.16;;;-2.68;54.87
80382;BME280;69692;55.820;37.490;2024-03-06T02:14:26;100939.19;;;-2.79;54.91
80382;BME280;69692;55.820;37.490;2024-03-06T02:16:52;100936.28;;;-3.11;54.97
80382;BME280;69692;55.820;37.490;2024-03-06T02:19:40;100945.78;;;-3.21;55.35
80382;BME280;69692;55.820;37.490;2024-03-06T02:22:07;100938.09;;;-3.24;56.34
80382;BME280;69692;55.820;37.490;2024-03-06T02:24:34;100933.06;;;-3.27;56.12
80382;BME280;69692;55.820;37.490;2024-03-06T02:27:00;100940.44;;;-3.32;56.03
80382;BME280;69692;55.820;37.490;2024-03-06T02:29:26;100938.97;;;-3.36;56.13
80382;BME280;69692;55.820;37.490;2024-03-06T02:31:52;100939.41;;;-3.42;55.67
80382;BME280;69692;55.820;37.490;2024-03-06T02:34:18;100937.78;;;-3.56;56.41
80382;BME280;69692;55.820;37.490;2024-03-06T02:36:44;100946.91;;;-3.62;56.53
80382;BME280;69692;55.820;37.490;2024-03-06T02:39:10;100951.13;;;-3.59;57.39
80382;BME280;69692;55.820;37.490;2024-03-06T02:41:36;100952.41;;;-3.65;56.72
80382;BME280;69692;55.820;37.490;2024-03-06T02:44:03;100960.72;;;-3.71;57.08
80382;BME280;69692;55.820;37.490;2024-03-06T02:46:29;100959.97;;;-3.73;57.52
80382;BME280;69692;55.820;37.490;2024-03-06T02:48:55;100959.78;;;-3.70;57.55
80382;BME280;69692;55.820;37.490;2024-03-06T02:51:21;100965.88;;;-3.82;57.56
80382;BME280;69692;55.820;37.490;2024-03-06T02:53:48;100966.09;;;-3.85;57.56
80382;BME280;69692;55.820;37.490;2024-03-06T02:56:18;100972.50;;;-3.89;57.59
80382;BME280;69692;55.820;37.490;2024-03-06T02:58:45;100977.97;;;-3.92;57.79
80382;BME280;69692;55.820;37.490;2024-03-06T03:01:13;100984.25;;;-4.07;58.18
80382;BME280;69692;55.820;37.490;2024-03-06T03:03:42;100982.47;;;-4.07;57.80
80382;BME280;69692;55.820;37.490;2024-03-06T03:06:10;100984.47;;;-4.10;58.69
80382;BME280;69692;55.820;37.490;2024-03-06T03:08:37;100997.81;;;-4.13;57.79
80382;BME280;69692;55.820;37.490;2024-03-06T03:11:03;100995.19;;;-4.26;58.12
80382;BME280;69692;55.820;37.490;2024-03-06T03:13:29;100995.19;;;-4.26;58.19
80382;BME280;69692;55.820;37.490;2024-03-06T03:15:56;100996.84;;;-4.25;58.02
80382;BME280;69692;55.820;37.490;2024-03-06T03:18:22;100999.59;;;-4.27;58.38
80382;BME280;69692;55.820;37.490;2024-03-06T03:20:48;101001.59;;;-4.17;58.39
80382;BME280;69692;55.820;37.490;2024-03-06T03:23:14;101003.72;;;-4.10;57.63
80382;BME280;69692;55.820;37.490;2024-03-06T03:25:43;101009.88;;;-4.24;58.15
80382;BME280;69692;55.820;37.490;2024-03-06T03:28:09;101014.28;;;-4.37;58.27
80382;BME280;69692;55.820;37.490;2024-03-06T03:30:36;101014.78;;;-4.44;58.58
80382;BME280;69692;55.820;37.490;2024-03-06T03:33:02;101008.38;;;-4.40;58.46
80382;BME280;69692;55.820;37.490;2024-03-06T03:35:28;101010.69;;;-4.36;58.09
80382;BME280;69692;55.820;37.490;2024-03-06T03:37:54;101018.69;;;-4.37;57.92
80382;BME280;69692;55.820;37.490;2024-03-06T03:40:21;101018.25;;;-4.44;58.62
80382;BME280;69692;55.820;37.490;2024-03-06T03:42:47;101006.19;;;-4.34;57.86
80382;BME280;69692;55.820;37.490;2024-03-06T03:45:13;101003.28;;;-4.29;57.72
80382;BME280;69692;55.820;37.490;2024-03-06T03:47:40;101000.28;;;-4.37;57.35
80382;BME280;69692;55.820;37.490;2024-03-06T03:50:09;100997.47;;;-4.34;56.96
80382;BME280;69692;55.820;37.490;2024-03-06T03:52:35;101004.19;;;-4.43;57.65
80382;BME280;69692;55.820;37.490;2024-03-06T03:55:01;101004.38;;;-4.46;57.61
80382;BME280;69692;55.820;37.490;2024-03-06T03:57:27;100990.09;;;-4.42;57.58
80382;BME280;69692;55.820;37.490;2024-03-06T03:59:54;101000.72;;;-4.43;57.26
80382;BME280;69692;55.820;37.490;2024-03-06T04:02:20;100997.28;;;-4.31;57.06
80382;BME280;69692;55.820;37.490;2024-03-06T04:04:45;101002.06;;;-4.38;57.81
80382;BME280;69692;55.820;37.490;2024-03-06T04:07:11;101002.50;;;-4.44;57.69
80382;BME280;69692;55.820;37.490;2024-03-06T04:09:37;100998.38;;;-4.48;57.96
80382;BME280;69692;55.820;37.490;2024-03-06T04:12:04;100995.53;;;-4.58;57.59
80382;BME280;69692;55.820;37.490;2024-03-06T04:14:30;101002.84;;;-4.63;57.87
80382;BME280;69692;55.820;37.490;2024-03-06T04:16:57;100992.50;;;2.30;87.93
80382;BME280;69692;55.820;37.490;2024-03-06T04:19:23;100992.69;;;1.22;92.93
80382;BME280;69692;55.820;37.490;2024-03-06T04:21:49;100996.41;;;0.09;52.24
80382;BME280;69692;55.820;37.490;2024-03-06T04:24:15;101001.06;;;-1.01;51.95
80382;BME280;69692;55.820;37.490;2024-03-06T04:26:41;100997.44;;;-1.89;52.83
80382;BME280;69692;55.820;37.490;2024-03-06T04:29:07;101009.00;;;-2.49;54.15
80382;BME280;69692;55.820;37.490;2024-03-06T04:31:32;101001.97;;;-2.85;55.37
80382;BME280;69692;55.820;37.490;2024-03-06T04:33:58;101007.38;;;-3.36;56.34
80382;BME280;69692;55.820;37.490;2024-03-06T04:36:24;101011.59;;;-3.59;56.39
80382;BME280;69692;55.820;37.490;2024-03-06T04:38:50;101003.81;;;-3.73;56.86
80382;BME280;69692;55.820;37.490;2024-03-06T04:41:18;101007.41;;;-3.87;56.77
80382;BME280;69692;55.820;37.490;2024-03-06T04:43:45;101005.19;;;-3.93;56.76
80382;BME280;69692;55.820;37.490;2024-03-06T04:46:14;101004.13;;;-4.03;57.19
80382;BME280;69692;55.820;37.490;2024-03-06T04:48:40;101003.19;;;-4.15;56.35
80382;BME280;69692;55.820;37.490;2024-03-06T04:51:06;101006.41;;;-4.24;57.03
80382;BME280;69692;55.820;37.490;2024-03-06T04:53:32;101003.75;;;-4.37;56.84
80382;BME280;69692;55.820;37.490;2024-03-06T04:55:58;101003.44;;;-4.32;56.96
80382;BME280;69692;55.820;37.490;2024-03-06T04:58:24;101002.53;;;-4.31;56.46
80382;BME280;69692;55.820;37.490;2024-03-06T05:00:50;101009.47;;;-4.30;56.67
80382;BME280;69692;55.820;37.490;2024-03-06T05:03:16;101009.00;;;-4.37;56.67
80382;BME280;69692;55.820;37.490;2024-03-06T05:05:42;101004.38;;;-4.33;56.37
80382;BME280;69692;55.820;37.490;2024-03-06T05:08:08;100998.41;;;-4.35;56.54
80382;BME280;69692;55.820;37.490;2024-03-06T05:10:35;101007.97;;;-4.34;56.59
80382;BME280;69692;55.820;37.490;2024-03-06T05:13:01;101008.56;;;-4.56;56.96
80382;BME280;69692;55.820;37.490;2024-03-06T05:15:28;101003.72;;;-4.50;56.24
80382;BME280;69692;55.820;37.490;2024-03-06T05:17:53;101009.53;;;-4.44;56.20
80382;BME280;69692;55.820;37.490;2024-03-06T05:20:22;101018.03;;;-4.41;56.46
80382;BME280;69692;55.820;37.490;2024-03-06T05:22:48;101016.22;;;-4.53;56.95
80382;BME280;69692;55.820;37.490;2024-03-06T05:25:14;101018.28;;;-4.31;56.31
80382;BME280;69692;55.820;37.490;2024-03-06T05:27:40;101007.69;;;-4.30;55.56
80382;BME280;69692;55.820;37.490;2024-03-06T05:30:07;101007.69;;;-4.30;56.02
80382;BME280;69692;55.820;37.490;2024-03-06T05:32:34;101016.81;;;-4.23;55.97
80382;BME280;69692;55.820;37.490;2024-03-06T05:35:00;101017.28;;;-4.16;55.94
80382;BME280;69692;55.820;37.490;2024-03-06T05:37:26;101008.88;;;-4.08;55.19
80382;BME280;69692;55.820;37.490;2024-03-06T05:39:54;101018.13;;;-3.90;55.20
80382;BME280;69692;55.820;37.490;2024-03-06T05:42:20;101015.72;;;-3.55;54.25
80382;BME280;69692;55.820;37.490;2024-03-06T05:44:46;101014.19;;;-3.21;53.48
80382;BME280;69692;55.820;37.490;2024-03-06T05:47:14;101018.75;;;-3.23;52.58
80382;BME280;69692;55.820;37.490;2024-03-06T05:49:40;101014.19;;;-3.21;52.00
80382;BME280;69692;55.820;37.490;2024-03-06T05:52:06;101012.19;;;-3.17;51.50
80382;BME280;69692;55.820;37.490;2024-03-06T05:54:32;101010.84;;;-3.23;51.50
80382;BME280;69692;55.820;37.490;2024-03-06T05:56:59;101010.03;;;-3.36;50.95
80382;BME280;69692;55.820;37.490;2024-03-06T05:59:25;101016.63;;;-3.31;51.43
80382;BME280;69692;55.820;37.490;2024-03-06T06:01:51;101017.47;;;-3.30;51.07
80382;BME280;69692;55.820;37.490;2024-03-06T06:04:17;101009.50;;;-3.41;52.07
80382;BME280;69692;55.820;37.490;2024-03-06T06:06:42;101018.41;;;-3.31;51.51
80382;BME280;69692;55.820;37.490;2024-03-06T06:09:08;101010.13;;;-3.25;51.20
80382;BME280;69692;55.820;37.490;2024-03-06T06:11:42;101009.97;;;-3.11;51.39
80382;BME280;69692;55.820;37.490;2024-03-06T06:14:09;101004.72;;;-2.87;50.03
80382;BME280;69692;55.820;37.490;2024-03-06T06:16:36;101013.91;;;-2.92;50.72
80382;BME280;69692;55.820;37.490;2024-03-06T06:19:02;101009.41;;;-3.03;50.46
80382;BME280;69692;55.820;37.490;2024-03-06T06:21:28;101020.81;;;-3.15;50.52
80382;BME280;69692;55.820;37.490;2024-03-06T06:23:54;101020.19;;;-3.19;51.25
80382;BME280;69692;55.820;37.490;2024-03-06T06:26:20;101019.75;;;-3.13;51.29
80382;BME280;69692;55.820;37.490;2024-03-06T06:28:46;101029.59;;;-2.91;50.76
80382;BME280;69692;55.820;37.490;2024-03-06T06:31:12;101021.31;;;-2.74;50.46
80382;BME280;69692;55.820;37.490;2024-03-06T06:33:38;101026.84;;;-2.89;50.93
80382;BME280;69692;55.820;37.490;2024-03-06T06:36:04;101020.00;;;-2.79;51.08
80382;BME280;69692;55.820;37.490;2024-03-06T06:38:30;101023.78;;;-2.59;50.60
80382;BME280;69692;55.820;37.490;2024-03-06T06:40:56;101025.66;;;-2.49;50.60
80382;BME280;69692;55.820;37.490;2024-03-06T06:43:22;101024.16;;;-2.29;50.22
80382;BME280;69692;55.820;37.490;2024-03-06T06:45:48;101027.88;;;-2.31;50.08
80382;BME280;69692;55.820;37.490;2024-03-06T06:48:14;101029.72;;;-2.45;51.35
80382;BME280;69692;55.820;37.490;2024-03-06T06:50:40;101026.75;;;-2.16;50.36
80382;BME280;69692;55.820;37.490;2024-03-06T06:53:06;101021.75;;;-1.97;49.43
80382;BME280;69692;55.820;37.490;2024-03-06T06:55:32;101034.47;;;-2.26;49.70
80382;BME280;69692;55.820;37.490;2024-03-06T06:57:57;101026.25;;;-2.10;50.06
80382;BME280;69692;55.820;37.490;2024-03-06T07:00:23;101036.28;;;-1.91;48.90
80382;BME280;69692;55.820;37.490;2024-03-06T07:02:51;101038.09;;;-1.81;48.96
80382;BME280;69692;55.820;37.490;2024-03-06T07:05:17;101032.25;;;-1.73;49.80
80382;BME280;69692;55.820;37.490;2024-03-06T07:07:42;101030.44;;;-1.72;47.98
80382;BME280;69692;55.820;37.490;2024-03-06T07:10:09;101025.50;;;-1.88;48.55
80382;BME280;69692;55.820;37.490;2024-03-06T07:12:36;101033.28;;;-1.87;49.46
80382;BME280;69692;55.820;37.490;2024-03-06T07:15:02;101030.59;;;-2.09;49.40
80382;BME280;69692;55.820;37.490;2024-03-06T07:17:32;101037.28;;;-2.16;50.05
80382;BME280;69692;55.820;37.490;2024-03-06T07:19:58;101033.19;;;-2.20;49.42
80382;BME280;69692;55.820;37.490;2024-03-06T07:22:24;101034.84;;;-2.30;49.89
80382;BME280;69692;55.820;37.490;2024-03-06T07:24:50;101029.44;;;-2.29;50.24
80382;BME280;69692;55.820;37.490;2024-03-06T07:27:16;101029.19;;;-2.37;50.85
80382;BME280;69692;55.820;37.490;2024-03-06T07:29:44;101034.69;;;-2.05;50.99
80382;BME280;69692;55.820;37.490;2024-03-06T07:32:10;101030.81;;;-1.66;51.32
80382;BME280;69692;55.820;37.490;2024-03-06T07:34:36;101036.13;;;-1.43;48.80
80382;BME280;69692;55.820;37.490;2024-03-06T07:37:02;101035.88;;;-1.40;48.17
80382;BME280;69692;55.820;37.490;2024-03-06T07:39:28;101045.22;;;-1.36;47.50
80382;BME280;69692;55.820;37.490;2024-03-06T07:42:13;101042.59;;;-1.59;47.68
80382;BME280;69692;55.820;37.490;2024-03-06T07:44:41;101042.16;;;-1.88;48.87
80382;BME280;69692;55.820;37.490;2024-03-06T07:47:06;101048.84;;;-1.48;48.28
80382;BME280;69692;55.820;37.490;2024-03-06T07:49:34;101044.41;;;-1.26;46.96
80382;BME280;69692;55.820;37.490;2024-03-06T07:52:00;101047.03;;;-1.14;46.58
80382;BME280;69692;55.820;37.490;2024-03-06T07:54:26;101046.31;;;-1.39;46.99
80382;BME280;69692;55.820;37.490;2024-03-06T07:56:52;101052.91;;;-1.11;47.27
80382;BME280;69692;55.820;37.490;2024-03-06T07:59:19;101048.22;;;-0.74;46.16
80382;BME280;69692;55.820;37.490;2024-03-06T08:01:45;101042.84;;;-0.51;46.52
80382;BME280;69692;55.820;37.490;2024-03-06T08:04:11;101048.66;;;-0.25;44.55
80382;BME280;69692;55.820;37.490;2024-03-06T08:06:37;101045.06;;;-0.04;43.94
80382;BME280;69692;55.820;37.490;2024-03-06T08:09:03;101042.09;;;0.11;43.61
80382;BME280;69692;55.820;37.490;2024-03-06T08:11:29;101042.38;;;0.08;44.46
80382;BME280;69692;55.820;37.490;2024-03-06T08:13:58;101047.22;;;0.03;44.61
80382;BME280;69692;55.820;37.490;2024-03-06T08:16:25;101046.63;;;0.20;44.12
80382;BME280;69692;55.820;37.490;2024-03-06T08:18:50;101038.56;;;0.21;42.22
80382;BME280;69692;55.820;37.490;2024-03-06T08:21:16;101045.97;;;0.27;43.11
80382;BME280;69692;55.820;37.490;2024-03-06T08:23:42;101045.53;;;0.22;41.73
80382;BME280;69692;55.820;37.490;2024-03-06T08:26:10;101045.66;;;0.21;42.72
80382;BME280;69692;55.820;37.490;2024-03-06T08:28:36;101040.81;;;0.26;41.74
80382;BME280;69692;55.820;37.490;2024-03-06T08:31:02;101044.81;;;0.41;40.97
80382;BME280;69692;55.820;37.490;2024-03-06T08:33:28;101048.28;;;0.42;42.09
80382;BME280;69692;55.820;37.490;2024-03-06T08:35:54;101046.84;;;0.58;40.44
80382;BME280;69692;55.820;37.490;2024-03-06T08:38:20;101038.78;;;0.60;41.10
80382;BME280;69692;55.820;37.490;2024-03-06T08:40:46;101038.50;;;0.12;41.65
80382;BME280;69692;55.820;37.490;2024-03-06T08:43:12;101039.13;;;0.25;41.85
80382;BME280;69692;55.820;37.490;2024-03-06T08:45:38;101034.91;;;0.43;41.76
80382;BME280;69692;55.820;37.490;2024-03-06T08:48:04;101033.09;;;0.65;40.48
80382;BME280;69692;55.820;37.490;2024-03-06T08:50:31;101027.50;;;0.37;39.75
80382;BME280;69692;55.820;37.490;2024-03-06T08:52:57;101026.59;;;0.27;40.23
80382;BME280;69692;55.820;37.490;2024-03-06T08:55:23;101025.41;;;0.31;40.46
80382;BME280;69692;55.820;37.490;2024-03-06T08:57:48;101030.25;;;0.56;40.10
80382;BME280;69692;55.820;37.490;2024-03-06T09:00:16;101019.78;;;0.76;39.60
80382;BME280;69692;55.820;37.490;2024-03-06T09:02:43;101030.25;;;0.87;37.95
80382;BME280;69692;55.820;37.490;2024-03-06T09:05:09;101029.47;;;0.96;39.00
80382;BME280;69692;55.820;37.490;2024-03-06T09:07:37;101021.66;;;0.95;38.09
80382;BME280;69692;55.820;37.490;2024-03-06T09:10:04;101022.47;;;0.95;38.40
80382;BME280;69692;55.820;37.490;2024-03-06T09:12:33;101018.13;;;0.84;39.19
80382;BME280;69692;55.820;37.490;2024-03-06T09:15:01;101015.31;;;0.86;39.38
80382;BME280;69692;55.820;37.490;2024-03-06T09:17:31;101020.59;;;0.76;38.66
80382;BME280;69692;55.820;37.490;2024-03-06T09:19:57;101019.19;;;0.72;38.89
80382;BME280;69692;55.820;37.490;2024-03-06T09:22:23;101016.38;;;0.74;40.37
80382;BME280;69692;55.820;37.490;2024-03-06T09:24:49;101011.81;;;0.76;39.89
80382;BME280;69692;55.820;37.490;2024-03-06T09:27:15;101008.00;;;0.69;38.97
80382;BME280;69692;55.820;37.490;2024-03-06T09:29:43;101001.38;;;0.84;40.56
80382;BME280;69692;55.820;37.490;2024-03-06T09:32:09;101006.34;;;1.08;38.44
80382;BME280;69692;55.820;37.490;2024-03-06T09:34:34;101004.91;;;1.04;38.54
80382;BME280;69692;55.820;37.490;2024-03-06T09:37:00;101012.44;;;0.99;39.50
80382;BME280;69692;55.820;37.490;2024-03-06T09:39:26;101011.22;;;1.12;39.24
80382;BME280;69692;55.820;37.490;2024-03-06T09:41:53;101008.31;;;1.15;39.14
80382;BME280;69692;55.820;37.490;2024-03-06T09:44:20;101008.16;;;1.17;38.58
80382;BME280;69692;55.820;37.490;2024-03-06T09:46:48;101001.28;;;0.95;39.02
80382;BME280;69692;55.820;37.490;2024-03-06T09:49:15;101002.34;;;0.83;39.35
80382;BME280;69692;55.820;37.490;2024-03-06T09:51:43;101003.47;;;0.80;38.35
80382;BME280;69692;55.820;37.490;2024-03-06T09:54:12;101007.41;;;0.96;39.19
80382;BME280;69692;55.820;37.490;2024-03-06T09:56:43;101005.66;;;1.06;39.00
80382;BME280;69692;55.820;37.490;2024-03-06T09:59:11;101000.47;;;1.14;39.37
80382;BME280;69692;55.820;37.490;2024-03-06T10:01:55;100997.00;;;0.73;38.18
80382;BME280;69692;55.820;37.490;2024-03-06T10:04:23;100994.41;;;0.83;39.29
80382;BME280;69692;55.820;37.490;2024-03-06T10:06:54;100997.09;;;1.02;40.72
80382;BME280;69692;55.820;37.490;2024-03-06T10:09:21;100994.50;;;1.12;37.59
80382;BME280;69692;55.820;37.490;2024-03-06T10:11:47;100994.59;;;0.91;38.63
80382;BME280;69692;55.820;37.490;2024-03-06T10:14:13;100994.16;;;0.96;37.96
80382;BME280;69692;55.820;37.490;2024-03-06T10:16:59;100986.97;;;1.17;37.45
80382;BME280;69692;55.820;37.490;2024-03-06T10:19:27;100984.63;;;1.43;38.17
80382;BME280;69692;55.820;37.490;2024-03-06T10:21:55;100981.56;;;1.57;37.33
80382;BME280;69692;55.820;37.490;2024-03-06T10:24:27;100979.91;;;1.66;36.73
80382;BME280;69692;55.820;37.490;2024-03-06T10:26:58;100980.72;;;1.76;35.77
80382;BME280;69692;55.820;37.490;2024-03-06T10:29:26;100981.53;;;1.76;36.22
80382;BME280;69692;55.820;37.490;2024-03-06T10:31:54;100972.91;;;1.74;36.53
80382;BME280;69692;55.820;37.490;2024-03-06T10:34:25;100981.69;;;1.56;37.32
80382;BME280;69692;55.820;37.490;2024-03-06T10:36:59;100971.38;;;1.72;36.57
80382;BME280;69692;55.820;37.490;2024-03-06T10:39:25;100978.75;;;1.97;36.70
80382;BME280;69692;55.820;37.490;2024-03-06T10:44:44;100973.41;;;2.07;35.23
80382;BME280;69692;55.820;37.490;2024-03-06T10:47:16;100973.72;;;1.85;35.90
80382;BME280;69692;55.820;37.490;2024-03-06T10:49:45;100976.41;;;1.56;36.01
80382;BME280;69692;55.820;37.490;2024-03-06T10:52:13;100962.31;;;1.55;36.23
80382;BME280;69692;55.820;37.490;2024-03-06T10:54:43;100972.06;;;1.55;36.77
80382;BME280;69692;55.820;37.490;2024-03-06T10:57:12;100969.13;;;1.29;36.33
80382;BME280;69692;55.820;37.490;2024-03-06T10:59:40;100972.31;;;1.32;37.63
80382;BME280;69692;55.820;37.490;2024-03-06T11:02:08;100964.66;;;1.58;38.24
80382;BME280;69692;55.820;37.490;2024-03-06T11:04:54;100956.44;;;1.52;35.70
80382;BME280;69692;55.820;37.490;2024-03-06T11:07:20;100955.16;;;1.46;37.29
80382;BME280;69692;55.820;37.490;2024-03-06T11:09:46;100953.78;;;1.61;36.91
80382;BME280;69692;55.820;37.490;2024-03-06T11:12:37;100953.50;;;1.64;36.78
80382;BME280;69692;55.820;37.490;2024-03-06T11:15:09;100955.31;;;1.73;36.07
80382;BME280;69692;55.820;37.490;2024-03-06T11:17:36;100955.19;;;1.65;35.53
80382;BME280;69692;55.820;37.490;2024-03-06T11:28:23;100939.63;;;1.90;36.09
80382;BME280;69692;55.820;37.490;2024-03-06T11:33:23;100935.69;;;2.03;34.24
80382;BME280;69692;55.820;37.490;2024-03-06T11:36:18;100933.81;;;1.67;35.24
80382;BME280;69692;55.820;37.490;2024-03-06T11:41:22;100930.19;;;1.39;35.02
80382;BME280;69692;55.820;37.490;2024-03-06T11:43:51;100920.56;;;1.47;35.56
80382;BME280;69692;55.820;37.490;2024-03-06T11:46:20;100917.78;;;1.39;35.27
80382;BME280;69692;55.820;37.490;2024-03-06T11:48:55;100919.47;;;1.50;34.37
80382;BME280;69692;55.820;37.490;2024-03-06T11:51:22;100923.34;;;1.65;34.98
80382;BME280;69692;55.820;37.490;2024-03-06T11:54:07;100919.47;;;1.40;33.34
80382;BME280;69692;55.820;37.490;2024-03-06T11:56:33;100918.59;;;1.59;34.58
80382;BME280;69692;55.820;37.490;2024-03-06T11:58:59;100915.66;;;1.62;33.49
80382;BME280;69692;55.820;37.490;2024-03-06T12:01:25;100910.25;;;1.25;33.02
80382;BME280;69692;55.820;37.490;2024-03-06T12:03:51;100904.66;;;1.38;33.42
80382;BME280;69692;55.820;37.490;2024-03-06T12:06:17;100910.09;;;1.65;35.33
80382;BME280;69692;55.820;37.490;2024-03-06T12:08:44;100908.81;;;1.79;32.33
80382;BME280;69692;55.820;37.490;2024-03-06T12:11:10;100900.66;;;2.00;33.17
80382;BME280;69692;55.820;37.490;2024-03-06T12:13:36;100903.00;;;2.13;32.73
80382;BME280;69692;55.820;37.490;2024-03-06T12:16:06;100904.38;;;2.17;31.04
80382;BME280;69692;55.820;37.490;2024-03-06T12:18:35;100900.59;;;2.47;33.06
80382;BME280;69692;55.820;37.490;2024-03-06T12:21:02;100894.47;;;2.74;30.35
80382;BME280;69692;55.820;37.490;2024-03-06T12:23:28;100888.78;;;2.86;29.44
80382;BME280;69692;55.820;37.490;2024-03-06T12:28:32;100888.69;;;2.78;29.84
80382;BME280;69692;55.820;37.490;2024-03-06T12:30:58;100889.78;;;2.85;29.28
80382;BME280;69692;55.820;37.490;2024-03-06T12:33:27;100890.59;;;2.86;28.52
80382;BME280;69692;55.820;37.490;2024-03-06T12:36:24;100884.31;;;3.05;28.02
80382;BME280;69692;55.820;37.490;2024-03-06T12:39:09;100879.00;;;3.22;27.00
80382;BME280;69692;55.820;37.490;2024-03-06T12:41:43;100884.47;;;3.21;28.33
80382;BME280;69692;55.820;37.490;2024-03-06T12:44:10;100881.59;;;3.32;29.06
80382;BME280;69692;55.820;37.490;2024-03-06T12:46:36;100879.22;;;3.11;28.02
80382;BME280;69692;55.820;37.490;2024-03-06T12:49:02;100881.66;;;2.59;28.83
80382;BME280;69692;55.820;37.490;2024-03-06T12:51:27;100887.44;;;2.18;29.75
80382;BME280;69692;55.820;37.490;2024-03-06T12:53:53;100885.94;;;2.15;31.66
80382;BME280;69692;55.820;37.490;2024-03-06T12:56:19;100879.84;;;2.32;31.54
80382;BME280;69692;55.820;37.490;2024-03-06T12:58:45;100881.13;;;2.28;30.50
80382;BME280;69692;55.820;37.490;2024-03-06T13:01:11;100882.31;;;2.06;30.76